createdAt,value
2023-03-06T00:00:22.608Z,-0.13
2023-03-06T00:02:49.906Z,0.03
2023-03-06T00:05:17.280Z,0.01
2023-03-06T00:07:44.584Z,-0.01
2023-03-06T00:10:23.290Z,0.10
2023-03-06T00:13:01.806Z,0.01
2023-03-06T00:15:29.213Z,-0.09
2023-03-06T00:17:56.653Z,-0.08
2023-03-06T00:20:24.186Z,-0.08
2023-03-06T00:22:51.449Z,-0.06
2023-03-06T00:25:20.355Z,0.04
2023-03-06T00:27:47.673Z,-0.04
2023-03-06T00:30:17.100Z,-0.03
2023-03-06T00:32:44.431Z,-0.12
2023-03-06T00:35:13.040Z,-0.08
2023-03-06T00:37:40.409Z,-0.05
2023-03-06T00:40:09.764Z,-0.09
2023-03-06T00:42:37.233Z,-0.10
2023-03-06T00:45:05.398Z,0.00
2023-03-06T00:47:32.626Z,0.03
2023-03-06T00:49:59.906Z,0.06
2023-03-06T00:52:27.194Z,-0.01
2023-03-06T00:54:54.556Z,0.13
2023-03-06T00:57:21.880Z,-0.08
2023-03-06T00:59:49.157Z,0.03
2023-03-06T01:02:16.527Z,0.03
2023-03-06T01:04:43.840Z,0.08
2023-03-06T01:07:11.823Z,0.10
2023-03-06T01:09:39.074Z,0.13
2023-03-06T01:12:06.629Z,0.08
2023-03-06T01:14:35.115Z,0.08
2023-03-06T01:17:02.513Z,0.09
2023-03-06T01:19:29.827Z,0.21
2023-03-06T01:21:58.340Z,0.29
2023-03-06T01:24:25.975Z,0.37
2023-03-06T01:26:56.954Z,0.49
2023-03-06T01:29:26.389Z,0.47
2023-03-06T01:31:56.049Z,0.52
2023-03-06T01:34:23.437Z,0.50
2023-03-06T01:36:50.737Z,0.51
2023-03-06T01:39:19.219Z,0.47
2023-03-06T01:41:46.966Z,0.46
2023-03-06T01:44:14.224Z,0.56
2023-03-06T01:46:42.812Z,0.70
2023-03-06T01:49:26.689Z,0.71
2023-03-06T01:52:11.073Z,0.73
2023-03-06T01:54:44.748Z,0.65
2023-03-06T01:57:14.274Z,0.79
2023-03-06T01:59:42.193Z,0.79
2023-03-06T02:02:10.596Z,0.77
2023-03-06T02:04:39.541Z,0.87
2023-03-06T02:07:06.927Z,0.81
2023-03-06T02:09:34.847Z,0.73
2023-03-06T02:12:02.654Z,0.78
2023-03-06T02:14:30.076Z,0.73
2023-03-06T02:16:57.381Z,0.71
2023-03-06T02:19:45.889Z,0.64
2023-03-06T02:22:13.168Z,0.63
2023-03-06T02:24:57.559Z,0.71
2023-03-06T02:27:24.936Z,0.72
2023-03-06T02:29:55.218Z,0.72
2023-03-06T02:32:22.509Z,0.68
2023-03-06T02:34:53.858Z,0.64
2023-03-06T02:37:21.521Z,0.70
2023-03-06T02:39:52.835Z,0.74
2023-03-06T02:42:25.097Z,0.55
2023-03-06T02:44:53.993Z,0.78
2023-03-06T02:47:21.293Z,0.83
2023-03-06T02:49:48.539Z,0.79
2023-03-06T02:52:15.788Z,0.77
2023-03-06T02:54:43.077Z,0.80
2023-03-06T02:57:10.392Z,0.76
2023-03-06T02:59:37.814Z,0.81
2023-03-06T03:02:06.208Z,0.98
2023-03-06T03:04:34.816Z,1.00
2023-03-06T03:07:03.116Z,1.00
2023-03-06T03:09:36.864Z,1.00
2023-03-06T03:12:06.121Z,1.09
2023-03-06T03:14:34.134Z,1.11
2023-03-06T03:17:02.487Z,1.34
2023-03-06T03:19:29.817Z,1.45
2023-03-06T03:21:57.081Z,1.37
2023-03-06T03:24:24.720Z,1.32
2023-03-06T03:26:52.731Z,1.34
2023-03-06T03:29:22.328Z,1.39
2023-03-06T03:31:49.684Z,1.41
2023-03-06T03:34:18.934Z,1.47
2023-03-06T03:36:46.345Z,1.53
2023-03-06T03:39:14.490Z,1.52
2023-03-06T03:41:42.710Z,1.54
2023-03-06T03:44:10.847Z,1.53
2023-03-06T03:46:38.308Z,1.57
2023-03-06T03:49:10.409Z,1.57
2023-03-06T03:51:38.336Z,1.57
2023-03-06T03:54:06.858Z,1.52
2023-03-06T03:56:40.755Z,1.52
2023-03-06T03:59:13.849Z,1.52
2023-03-06T04:01:49.514Z,1.74
2023-03-06T04:04:18.039Z,1.72
2023-03-06T04:06:46.111Z,1.66
2023-03-06T04:09:14.138Z,1.70
2023-03-06T04:11:42.029Z,1.57
2023-03-06T04:14:09.843Z,1.65
2023-03-06T04:16:37.443Z,1.67
2023-03-06T04:19:04.800Z,1.74
2023-03-06T04:21:32.233Z,1.81
2023-03-06T04:23:59.753Z,1.95
2023-03-06T04:26:27.095Z,2.01
2023-03-06T04:28:56.099Z,2.22
2023-03-06T04:31:23.456Z,2.19
2023-03-06T04:33:50.960Z,2.26
2023-03-06T04:36:36.584Z,2.29
2023-03-06T04:39:07.814Z,2.44
2023-03-06T04:41:35.570Z,2.63
2023-03-06T04:44:03.114Z,2.66
2023-03-06T04:46:30.386Z,2.67
2023-03-06T04:48:57.658Z,2.70
2023-03-06T04:51:24.984Z,2.63
2023-03-06T04:53:52.432Z,2.58
2023-03-06T04:56:19.720Z,2.63
2023-03-06T04:58:46.994Z,2.57
2023-03-06T05:01:14.248Z,2.61
2023-03-06T05:03:41.547Z,2.52
2023-03-06T05:06:08.802Z,2.61
2023-03-06T05:08:36.141Z,2.55
2023-03-06T05:11:03.453Z,2.55
2023-03-06T05:13:30.748Z,2.49
2023-03-06T05:16:02.584Z,2.41
2023-03-06T05:18:30.010Z,2.48
2023-03-06T05:21:00.118Z,2.47
2023-03-06T05:23:28.113Z,2.49
2023-03-06T05:25:55.481Z,2.55
2023-03-06T05:28:22.781Z,2.45
2023-03-06T05:30:50.127Z,2.38
2023-03-06T05:33:17.485Z,2.44
2023-03-06T05:35:48.619Z,2.53
2023-03-06T05:38:16.232Z,2.52
2023-03-06T05:40:43.988Z,2.61
2023-03-06T05:43:11.950Z,2.66
2023-03-06T05:45:39.458Z,2.61
2023-03-06T05:48:07.404Z,2.60
2023-03-06T05:50:34.725Z,2.62
2023-03-06T05:53:02.068Z,2.73
2023-03-06T05:55:29.632Z,2.87
2023-03-06T05:57:57.018Z,2.87
2023-03-06T06:00:24.751Z,2.83
2023-03-06T06:02:52.016Z,2.88
2023-03-06T06:05:19.272Z,3.00
2023-03-06T06:07:46.607Z,2.94
2023-03-06T06:10:13.922Z,2.96
2023-03-06T06:12:41.201Z,2.99
2023-03-06T06:15:08.845Z,2.96
2023-03-06T06:17:36.231Z,2.94
2023-03-06T06:20:03.637Z,2.99
2023-03-06T06:22:30.971Z,3.18
2023-03-06T06:24:58.318Z,3.10
2023-03-06T06:27:25.766Z,3.09
2023-03-06T06:29:53.128Z,3.17
2023-03-06T06:32:20.545Z,3.17
2023-03-06T06:34:48.578Z,3.18
2023-03-06T06:37:16.277Z,3.19
2023-03-06T06:39:43.662Z,3.26
2023-03-06T06:42:29.821Z,3.25
2023-03-06T06:44:58.657Z,3.32
2023-03-06T06:47:26.370Z,3.40
2023-03-06T06:49:54.220Z,3.41
2023-03-06T06:52:22.270Z,3.60
2023-03-06T06:54:49.547Z,3.54
2023-03-06T06:57:16.830Z,3.59
2023-03-06T06:59:44.185Z,3.55
2023-03-06T07:02:15.865Z,3.57
2023-03-06T07:04:56.489Z,3.66
2023-03-06T07:07:29.781Z,3.78
2023-03-06T07:09:57.166Z,3.74
2023-03-06T07:12:24.559Z,3.89
2023-03-06T07:14:51.862Z,3.91
2023-03-06T07:17:19.143Z,3.99
2023-03-06T07:19:46.719Z,3.91
2023-03-06T07:22:14.169Z,3.99
2023-03-06T07:24:41.425Z,4.10
2023-03-06T07:27:10.461Z,4.02
2023-03-06T07:29:38.958Z,4.04
2023-03-06T07:32:07.528Z,4.16
2023-03-06T07:34:37.813Z,4.14
2023-03-06T07:37:05.154Z,4.12
2023-03-06T07:39:32.432Z,4.17
2023-03-06T07:41:59.764Z,4.12
2023-03-06T07:44:27.381Z,4.23
2023-03-06T07:46:54.674Z,4.43
2023-03-06T07:49:23.970Z,4.42
2023-03-06T07:51:51.460Z,4.56
2023-03-06T07:54:18.799Z,4.46
2023-03-06T07:56:46.150Z,4.59
2023-03-06T07:59:13.461Z,4.57
2023-03-06T08:01:40.770Z,4.67
2023-03-06T08:04:08.214Z,4.66
2023-03-06T08:06:35.726Z,4.91
2023-03-06T08:09:03.232Z,5.07
2023-03-06T08:11:30.874Z,4.85
2023-03-06T08:13:58.423Z,4.80
2023-03-06T08:16:28.062Z,4.95
2023-03-06T08:18:55.782Z,4.79
2023-03-06T08:21:24.814Z,4.95
2023-03-06T08:23:53.430Z,4.88
2023-03-06T08:26:31.076Z,4.92
2023-03-06T08:28:59.291Z,4.58
2023-03-06T08:31:39.092Z,4.68
2023-03-06T08:34:11.037Z,4.96
2023-03-06T08:36:38.369Z,4.99
2023-03-06T08:39:05.937Z,4.90
2023-03-06T08:41:33.612Z,4.98
2023-03-06T08:44:01.330Z,5.15
2023-03-06T08:46:29.185Z,5.31
2023-03-06T08:48:56.704Z,5.20
2023-03-06T08:51:24.353Z,5.37
2023-03-06T08:53:52.339Z,5.39
2023-03-06T08:56:21.536Z,5.31
2023-03-06T08:58:50.623Z,5.53
2023-03-06T09:01:21.217Z,5.65
2023-03-06T09:03:48.852Z,5.66
2023-03-06T09:06:16.128Z,5.69
2023-03-06T09:08:44.569Z,5.81
2023-03-06T09:11:12.945Z,5.79
2023-03-06T09:13:40.522Z,5.82
2023-03-06T09:16:08.904Z,5.93
2023-03-06T09:18:36.444Z,5.90
2023-03-06T09:21:04.312Z,5.90
2023-03-06T09:23:31.685Z,5.66
2023-03-06T09:25:59.329Z,5.94
2023-03-06T09:28:26.656Z,6.20
2023-03-06T09:31:03.774Z,6.13
2023-03-06T09:33:31.650Z,5.97
2023-03-06T09:35:59.158Z,5.95
2023-03-06T09:38:27.890Z,6.01
2023-03-06T09:40:58.450Z,6.08
2023-03-06T09:43:31.885Z,5.67
2023-03-06T09:45:59.255Z,5.73
2023-03-06T09:48:37.475Z,5.72
2023-03-06T09:51:10.570Z,5.63
2023-03-06T09:53:44.093Z,5.68
2023-03-06T09:56:21.868Z,5.68
2023-03-06T09:58:52.332Z,5.66
2023-03-06T10:01:24.789Z,5.63
2023-03-06T10:04:24.444Z,5.55
2023-03-06T10:06:55.326Z,5.47
2023-03-06T10:09:25.402Z,5.54
2023-03-06T10:11:56.256Z,5.21
2023-03-06T10:14:38.153Z,5.30
2023-03-06T10:17:05.822Z,5.39
2023-03-06T10:19:37.864Z,5.24
2023-03-06T10:22:11.086Z,5.33
2023-03-06T10:24:53.360Z,5.52
2023-03-06T10:27:23.858Z,5.10
2023-03-06T10:30:03.402Z,5.28
2023-03-06T10:32:55.020Z,4.93
2023-03-06T10:35:24.506Z,4.95
2023-03-06T10:37:51.794Z,4.98
2023-03-06T10:40:22.601Z,4.87
2023-03-06T10:42:58.704Z,4.97
2023-03-06T10:45:51.506Z,4.58
2023-03-06T10:48:24.124Z,4.70
2023-03-06T10:50:51.758Z,4.57
2023-03-06T10:53:26.427Z,4.54
2023-03-06T10:55:58.320Z,4.56
2023-03-06T10:58:30.348Z,4.73
2023-03-06T11:01:09.605Z,4.31
2023-03-06T11:03:37.027Z,4.39
2023-03-06T11:06:10.829Z,4.36
2023-03-06T11:08:40.492Z,4.30
2023-03-06T11:11:08.859Z,4.44
2023-03-06T11:13:38.426Z,4.45
2023-03-06T11:16:16.292Z,4.69
2023-03-06T11:18:54.615Z,4.38
2023-03-06T11:21:32.715Z,4.31
2023-03-06T11:24:08.852Z,3.95
2023-03-06T11:26:37.431Z,4.39
2023-03-06T11:29:04.719Z,4.21
2023-03-06T11:31:36.579Z,4.30
2023-03-06T11:34:39.316Z,4.67
2023-03-06T11:37:15.714Z,4.72
2023-03-06T11:39:53.015Z,4.51
2023-03-06T11:42:29.206Z,4.78
2023-03-06T11:45:00.358Z,4.41
2023-03-06T11:47:39.207Z,4.35
2023-03-06T11:50:18.542Z,4.51
2023-03-06T11:52:53.227Z,4.38
2023-03-06T11:55:33.520Z,4.08
2023-03-06T11:58:31.734Z,4.08
2023-03-06T12:01:25.273Z,4.16
2023-03-06T12:03:58.149Z,4.18
2023-03-06T12:06:49.421Z,4.21
2023-03-06T12:09:41.088Z,4.17
2023-03-06T12:12:30.123Z,4.21
2023-03-06T12:15:05.455Z,4.49
2023-03-06T12:17:42.398Z,4.50
2023-03-06T12:20:16.139Z,4.52
2023-03-06T12:22:57.543Z,4.49
2023-03-06T12:25:36.669Z,4.31
2023-03-06T12:28:32.080Z,4.64
2023-03-06T12:31:32.980Z,4.71
2023-03-06T12:34:29.875Z,4.70
2023-03-06T12:37:18.734Z,4.50
2023-03-06T12:39:58.160Z,4.53
2023-03-06T12:43:02.915Z,4.78
2023-03-06T12:45:33.386Z,4.96
2023-03-06T12:48:00.820Z,5.04
2023-03-06T12:50:31.707Z,5.13
2023-03-06T12:53:03.479Z,4.75
2023-03-06T12:55:37.588Z,4.87
2023-03-06T12:58:33.390Z,5.04
2023-03-06T13:01:06.412Z,5.20
2023-03-06T13:03:39.376Z,5.23
2023-03-06T13:06:23.241Z,5.02
2023-03-06T13:09:15.074Z,4.89
2023-03-06T13:12:00.763Z,4.80
2023-03-06T13:14:34.359Z,4.88
2023-03-06T13:17:24.022Z,4.79
2023-03-06T13:20:13.303Z,4.91
2023-03-06T13:22:46.988Z,4.84
2023-03-06T13:25:22.622Z,4.90
2023-03-06T13:27:55.756Z,4.69
2023-03-06T13:30:46.384Z,4.59
2023-03-06T13:33:33.238Z,4.64
2023-03-06T13:36:29.583Z,4.71
2023-03-06T13:38:59.218Z,4.58
2023-03-06T13:41:33.797Z,4.72
2023-03-06T13:44:15.680Z,4.77
2023-03-06T13:46:43.155Z,4.68
2023-03-06T13:49:13.301Z,4.54
2023-03-06T13:51:53.179Z,4.49
2023-03-06T13:54:32.317Z,4.56
2023-03-06T13:57:33.431Z,4.68
2023-03-06T14:00:11.763Z,4.45
2023-03-06T14:02:56.122Z,4.52
2023-03-06T14:05:23.797Z,4.38
2023-03-06T14:08:13.914Z,4.48
2023-03-06T14:10:46.027Z,4.43
2023-03-06T14:13:14.474Z,4.21
2023-03-06T14:15:43.103Z,4.26
2023-03-06T14:18:13.326Z,4.42
2023-03-06T14:20:42.865Z,4.32
2023-03-06T14:23:30.425Z,4.36
2023-03-06T14:26:23.043Z,4.44
2023-03-06T14:28:53.422Z,4.54
2023-03-06T14:31:32.481Z,4.40
2023-03-06T14:34:05.022Z,4.17
2023-03-06T14:36:51.783Z,4.27
2023-03-06T14:39:25.067Z,4.52
2023-03-06T14:41:52.469Z,4.63
2023-03-06T14:44:20.052Z,4.67
2023-03-06T14:46:57.464Z,4.51
2023-03-06T14:49:25.672Z,4.22
2023-03-06T14:51:56.871Z,4.17
2023-03-06T14:54:32.154Z,4.02
2023-03-06T14:57:20.075Z,4.19
2023-03-06T14:59:50.487Z,4.26
2023-03-06T15:02:20.457Z,4.14
2023-03-06T15:04:55.294Z,4.11
2023-03-06T15:07:25.274Z,4.13
2023-03-06T15:09:53.784Z,4.03
2023-03-06T15:12:21.284Z,4.18
2023-03-06T15:15:08.013Z,4.14
2023-03-06T15:17:38.991Z,4.23
2023-03-06T15:20:08.471Z,4.09
2023-03-06T15:22:42.154Z,4.13
2023-03-06T15:25:31.279Z,4.21
2023-03-06T15:28:23.926Z,4.13
2023-03-06T15:31:22.218Z,4.19
2023-03-06T15:34:09.257Z,4.16
2023-03-06T15:36:47.532Z,3.91
2023-03-06T15:39:32.378Z,3.99
2023-03-06T15:42:05.129Z,3.99
2023-03-06T15:44:33.363Z,3.93
2023-03-06T15:47:08.658Z,3.97
2023-03-06T15:49:37.702Z,3.83
2023-03-06T15:52:08.002Z,3.90
2023-03-06T15:54:35.755Z,3.79
2023-03-06T15:57:06.812Z,3.86
2023-03-06T15:59:39.234Z,3.88
2023-03-06T16:02:15.941Z,3.86
2023-03-06T16:04:43.674Z,3.83
2023-03-06T16:07:11.398Z,3.72
2023-03-06T16:09:38.684Z,3.59
2023-03-06T16:12:06.621Z,3.59
2023-03-06T16:14:33.881Z,3.51
2023-03-06T16:17:01.270Z,3.49
2023-03-06T16:19:28.618Z,3.56
2023-03-06T16:21:56.643Z,3.37
2023-03-06T16:24:26.223Z,3.47
2023-03-06T16:26:53.796Z,3.45
2023-03-06T16:29:23.095Z,3.42
2023-03-06T16:31:50.526Z,3.45
2023-03-06T16:37:00.888Z,3.29
2023-03-06T16:39:28.252Z,3.29
2023-03-06T16:41:55.632Z,3.31
2023-03-06T16:44:22.994Z,3.31
2023-03-06T16:46:50.409Z,3.21
2023-03-06T16:49:24.456Z,3.24
2023-03-06T16:51:52.032Z,3.20
2023-03-06T16:54:19.733Z,3.32
2023-03-06T16:56:47.010Z,3.33
2023-03-06T16:59:14.382Z,3.38
2023-03-06T17:01:43.153Z,3.34
2023-03-06T17:04:10.968Z,3.31
2023-03-06T17:06:38.548Z,3.34
2023-03-06T17:09:06.027Z,3.48
2023-03-06T17:11:33.376Z,3.45
2023-03-06T17:14:01.512Z,3.47
2023-03-06T17:16:28.810Z,3.55
2023-03-06T17:18:58.174Z,3.44
2023-03-06T17:21:27.054Z,3.33
2023-03-06T17:23:57.046Z,3.38
2023-03-06T17:26:24.352Z,3.40
2023-03-06T17:28:51.668Z,3.42
2023-03-06T17:31:23.323Z,3.54
2023-03-06T17:33:51.561Z,3.45
2023-03-06T17:36:19.481Z,3.46
2023-03-06T17:38:47.084Z,3.48
2023-03-06T17:41:14.381Z,3.50
2023-03-06T17:43:41.701Z,3.30
2023-03-06T17:46:10.811Z,3.18
2023-03-06T17:48:38.170Z,3.26
2023-03-06T17:51:05.906Z,3.18
2023-03-06T17:53:33.213Z,3.01
2023-03-06T17:56:02.235Z,2.94
2023-03-06T17:58:29.508Z,2.86
2023-03-06T18:00:56.757Z,2.79
2023-03-06T18:03:23.986Z,2.75
2023-03-06T18:06:01.164Z,2.86
2023-03-06T18:08:28.500Z,2.91
2023-03-06T18:11:04.179Z,2.96
2023-03-06T18:13:35.686Z,2.89
2023-03-06T18:16:03.785Z,2.85
2023-03-06T18:18:31.182Z,2.85
2023-03-06T18:20:58.551Z,2.86
2023-03-06T18:23:26.726Z,2.86
2023-03-06T18:26:04.929Z,2.61
2023-03-06T18:28:32.170Z,2.56
2023-03-06T18:30:59.495Z,2.50
2023-03-06T18:33:26.752Z,2.67
2023-03-06T18:35:56.287Z,2.69
2023-03-06T18:38:23.718Z,2.66
2023-03-06T18:40:51.003Z,2.68
2023-03-06T18:43:18.362Z,2.68
2023-03-06T18:45:56.225Z,2.62
2023-03-06T18:48:23.745Z,2.47
2023-03-06T18:50:51.120Z,2.56
2023-03-06T18:53:18.658Z,2.37
2023-03-06T18:55:49.736Z,2.40
2023-03-06T18:58:18.131Z,2.45
2023-03-06T19:00:45.604Z,2.52
2023-03-06T19:03:12.925Z,2.47
2023-03-06T19:05:44.594Z,2.41
2023-03-06T19:08:12.100Z,2.36
2023-03-06T19:10:41.042Z,2.46
2023-03-06T19:13:08.634Z,2.49
2023-03-06T19:15:48.380Z,2.36
2023-03-06T19:18:17.462Z,2.28
2023-03-06T19:20:44.972Z,2.38
2023-03-06T19:23:12.409Z,2.19
2023-03-06T19:25:39.725Z,2.17
2023-03-06T19:28:07.000Z,2.04
2023-03-06T19:30:34.323Z,1.88
2023-03-06T19:33:01.666Z,2.03
2023-03-06T19:35:29.261Z,2.13
2023-03-06T19:37:56.712Z,2.18
2023-03-06T19:40:23.953Z,2.19
2023-03-06T19:42:51.301Z,2.26
2023-03-06T19:45:18.983Z,2.29
2023-03-06T19:47:46.307Z,2.17
2023-03-06T19:50:13.615Z,2.33
2023-03-06T19:52:40.915Z,2.31
2023-03-06T19:55:09.724Z,2.18
2023-03-06T19:57:37.142Z,2.11
2023-03-06T20:00:05.098Z,2.16
2023-03-06T20:02:39.968Z,1.85
2023-03-06T20:05:09.314Z,1.69
2023-03-06T20:07:36.756Z,1.79
2023-03-06T20:10:05.384Z,1.85
2023-03-06T20:12:33.335Z,1.81
2023-03-06T20:15:00.593Z,1.79
2023-03-06T20:17:27.905Z,1.65
2023-03-06T20:19:55.532Z,1.61
2023-03-06T20:22:22.839Z,1.67
2023-03-06T20:24:50.132Z,1.78
2023-03-06T20:27:17.442Z,1.70
2023-03-06T20:29:44.798Z,1.74
2023-03-06T20:32:12.723Z,1.55
2023-03-06T20:34:40.177Z,1.64
2023-03-06T20:37:08.312Z,1.62
2023-03-06T20:39:35.701Z,1.54
2023-03-06T20:42:04.063Z,1.57
2023-03-06T20:44:31.350Z,1.55
2023-03-06T20:46:58.681Z,1.64
2023-03-06T20:49:27.325Z,1.57
2023-03-06T20:51:56.067Z,1.61
2023-03-06T20:54:23.362Z,1.53
2023-03-06T20:56:50.659Z,1.55
2023-03-06T20:59:18.014Z,1.51
2023-03-06T21:01:46.988Z,1.44
2023-03-06T21:04:14.767Z,1.44
2023-03-06T21:06:45.368Z,1.31
2023-03-06T21:09:15.906Z,1.34
2023-03-06T21:11:43.405Z,1.20
2023-03-06T21:14:12.339Z,1.18
2023-03-06T21:16:39.693Z,1.11
2023-03-06T21:19:09.358Z,1.12
2023-03-06T21:21:36.949Z,1.10
2023-03-06T21:24:04.407Z,1.04
2023-03-06T21:26:33.896Z,0.90
2023-03-06T21:29:01.638Z,0.93
2023-03-06T21:31:29.090Z,0.93
2023-03-06T21:33:56.706Z,0.95
2023-03-06T21:36:24.803Z,0.83
2023-03-06T21:38:52.456Z,0.86
2023-03-06T21:41:25.994Z,0.84
2023-03-06T21:43:57.063Z,0.72
2023-03-06T21:46:24.702Z,0.67
2023-03-06T21:48:52.033Z,0.78
2023-03-06T21:51:20.013Z,0.79
2023-03-06T21:53:47.799Z,0.75
2023-03-06T21:56:16.287Z,0.62
2023-03-06T21:58:43.824Z,0.53
2023-03-06T22:01:17.693Z,0.43
2023-03-06T22:03:45.233Z,0.34
2023-03-06T22:06:17.250Z,0.27
2023-03-06T22:08:44.596Z,0.14
2023-03-06T22:11:13.643Z,0.18
2023-03-06T22:13:41.176Z,0.42
2023-03-06T22:16:08.698Z,0.46
2023-03-06T22:18:36.061Z,0.40
2023-03-06T22:21:10.564Z,0.28
2023-03-06T22:23:38.147Z,0.14
2023-03-06T22:26:06.328Z,0.14
2023-03-06T22:28:33.698Z,0.12
2023-03-06T22:31:15.086Z,-0.05
2023-03-06T22:33:42.522Z,0.23
2023-03-06T22:36:11.650Z,0.23
2023-03-06T22:38:40.253Z,0.10
2023-03-06T22:41:07.866Z,0.08
2023-03-06T22:43:35.161Z,0.09
2023-03-06T22:46:07.428Z,0.16
2023-03-06T22:48:34.723Z,0.17
2023-03-06T22:51:09.426Z,0.17
2023-03-06T22:53:36.907Z,0.17
2023-03-06T22:56:08.007Z,0.24
2023-03-06T22:58:37.184Z,0.15
2023-03-06T23:01:15.385Z,0.12
2023-03-06T23:03:44.301Z,0.13
2023-03-06T23:06:15.189Z,0.17
2023-03-06T23:08:42.493Z,0.14
2023-03-06T23:11:11.232Z,0.17
2023-03-06T23:13:57.336Z,0.00
2023-03-06T23:16:43.316Z,0.00
2023-03-06T23:19:29.167Z,-0.11
2023-03-06T23:22:15.071Z,-0.17
2023-03-06T23:25:00.798Z,-0.18
2023-03-06T23:27:29.504Z,-0.17
2023-03-06T23:29:58.990Z,-0.14
2023-03-06T23:32:26.427Z,-0.05
2023-03-06T23:34:53.785Z,-0.08
2023-03-06T23:37:21.126Z,-0.07
2023-03-06T23:39:48.507Z,-0.12
2023-03-06T23:42:15.806Z,0.02
2023-03-06T23:44:43.233Z,-0.03
2023-03-06T23:47:10.515Z,0.00
2023-03-06T23:49:37.859Z,-0.08
2023-03-06T23:52:05.299Z,-0.09
2023-03-06T23:54:34.401Z,-0.11
2023-03-06T23:57:01.734Z,-0.11
2023-03-06T23:59:29.049Z,-0.14
